createdAt,value
2023-04-10T00:02:27.299Z,8.23
2023-04-10T00:04:54.423Z,7.80
2023-04-10T00:07:21.683Z,7.47
2023-04-10T00:09:48.706Z,8.02
2023-04-10T00:12:16.137Z,6.88
2023-04-10T00:14:43.217Z,7.63
2023-04-10T00:17:12.429Z,7.40
2023-04-10T00:19:39.349Z,7.97
2023-04-10T00:22:06.365Z,7.35
2023-04-10T00:24:36.323Z,7.43
2023-04-10T00:27:05.891Z,7.43
2023-04-10T00:29:32.869Z,8.00
2023-04-10T00:32:01.114Z,7.47
2023-04-10T00:34:30.076Z,7.57
2023-04-10T00:36:56.856Z,6.78
2023-04-10T00:39:23.827Z,7.47
2023-04-10T00:41:51.115Z,7.03
2023-04-10T00:44:18.033Z,7.47
2023-04-10T00:46:45.144Z,7.15
2023-04-10T00:49:12.205Z,7.50
2023-04-10T00:51:42.123Z,7.30
2023-04-10T00:54:10.715Z,7.15
2023-04-10T00:56:38.130Z,7.63
2023-04-10T00:59:07.512Z,7.55
2023-04-10T01:01:36.768Z,7.20
2023-04-10T01:04:06.110Z,7.63
2023-04-10T01:07:00.811Z,7.68
2023-04-10T01:10:12.878Z,7.85
2023-04-10T01:12:48.691Z,6.93
2023-04-10T01:15:27.242Z,7.25
2023-04-10T01:18:13.959Z,7.13
2023-04-10T01:20:42.345Z,7.70
2023-04-10T01:23:53.474Z,7.18
2023-04-10T01:26:37.167Z,7.03
2023-04-10T01:29:10.094Z,7.20
2023-04-10T01:31:42.653Z,6.88
2023-04-10T01:34:20.205Z,6.90
2023-04-10T01:37:01.373Z,6.40
2023-04-10T01:39:30.840Z,6.55
2023-04-10T01:42:00.167Z,6.72
2023-04-10T01:44:30.549Z,6.70
2023-04-10T01:46:58.968Z,5.80
2023-04-10T01:49:32.975Z,6.47
2023-04-10T01:52:03.812Z,6.40
2023-04-10T01:54:36.826Z,6.47
2023-04-10T01:57:04.864Z,6.75
2023-04-10T01:59:34.165Z,5.70
2023-04-10T02:02:01.856Z,6.30
2023-04-10T02:04:28.910Z,6.15
2023-04-10T02:07:06.836Z,7.03
2023-04-10T02:10:07.252Z,6.28
2023-04-10T02:12:41.825Z,5.78
2023-04-10T02:15:10.598Z,6.43
2023-04-10T02:17:40.002Z,6.38
2023-04-10T02:20:09.216Z,6.28
2023-04-10T02:22:37.551Z,6.68
2023-04-10T02:25:06.249Z,6.53
2023-04-10T02:27:37.575Z,6.82
2023-04-10T02:30:05.543Z,7.00
2023-04-10T02:32:37.247Z,5.97
2023-04-10T02:35:07.665Z,6.32
2023-04-10T02:37:36.373Z,6.72
2023-04-10T02:40:03.493Z,6.15
2023-04-10T02:42:30.592Z,6.93
2023-04-10T02:44:57.741Z,6.13
2023-04-10T02:47:24.804Z,6.65
2023-04-10T02:49:51.966Z,6.85
2023-04-10T02:52:18.928Z,6.78
2023-04-10T02:54:46.475Z,7.05
2023-04-10T02:57:15.687Z,6.72
2023-04-10T02:59:42.624Z,6.80
2023-04-10T03:02:14.515Z,6.78
2023-04-10T03:04:41.471Z,6.90
2023-04-10T03:07:08.186Z,7.35
2023-04-10T03:09:35.211Z,6.50
2023-04-10T03:12:02.657Z,7.03
2023-04-10T03:14:32.182Z,7.05
2023-04-10T03:16:58.932Z,7.22
2023-04-10T03:19:28.181Z,7.63
2023-04-10T03:21:55.123Z,7.30
2023-04-10T03:24:21.966Z,7.03
2023-04-10T03:26:48.701Z,6.57
2023-04-10T03:29:19.295Z,7.28
2023-04-10T03:31:46.219Z,7.45
2023-04-10T03:34:13.039Z,7.45
2023-04-10T03:36:39.833Z,7.32
2023-04-10T03:39:06.823Z,7.70
2023-04-10T03:41:36.401Z,7.50
2023-04-10T03:44:04.056Z,7.45
2023-04-10T03:46:30.979Z,7.80
2023-04-10T03:48:57.878Z,7.43
2023-04-10T03:51:27.727Z,7.22
2023-04-10T03:53:57.036Z,7.47
2023-04-10T03:56:23.876Z,7.18
2023-04-10T03:58:50.952Z,7.38
2023-04-10T04:01:17.929Z,7.03
2023-04-10T04:03:50.707Z,7.75
2023-04-10T04:06:17.762Z,8.05
2023-04-10T04:08:49.480Z,8.13
2023-04-10T04:11:21.035Z,7.63
2023-04-10T04:13:53.101Z,7.95
2023-04-10T04:16:22.939Z,7.47
2023-04-10T04:18:50.009Z,7.70
2023-04-10T04:21:16.950Z,8.07
2023-04-10T04:23:44.773Z,8.00
2023-04-10T04:26:14.772Z,7.93
2023-04-10T04:28:41.721Z,8.25
2023-04-10T04:31:11.262Z,8.13
2023-04-10T04:33:38.125Z,8.65
2023-04-10T04:36:07.783Z,8.63
2023-04-10T04:38:34.613Z,8.93
2023-04-10T04:41:01.552Z,8.73
2023-04-10T04:43:28.539Z,7.53
2023-04-10T04:45:55.263Z,8.50
2023-04-10T04:48:24.375Z,8.43
2023-04-10T04:50:51.016Z,8.15
2023-04-10T04:53:17.706Z,8.05
2023-04-10T04:55:44.412Z,7.70
2023-04-10T04:58:11.185Z,8.02
2023-04-10T05:00:37.865Z,7.75
2023-04-10T05:03:06.896Z,7.97
2023-04-10T05:05:34.475Z,8.00
2023-04-10T05:08:01.653Z,7.38
2023-04-10T05:10:28.872Z,7.82
2023-04-10T05:12:58.201Z,7.78
2023-04-10T05:15:32.961Z,7.53
2023-04-10T05:18:02.626Z,7.60
2023-04-10T05:20:34.903Z,7.47
2023-04-10T05:23:05.693Z,8.13
2023-04-10T05:25:32.566Z,7.72
2023-04-10T05:28:01.939Z,7.90
2023-04-10T05:30:30.248Z,7.55
2023-04-10T05:33:00.018Z,7.65
2023-04-10T05:35:26.774Z,7.57
2023-04-10T05:37:53.774Z,7.88
2023-04-10T05:40:24.062Z,7.57
2023-04-10T05:42:51.226Z,8.32
2023-04-10T05:45:18.762Z,7.57
2023-04-10T05:47:48.135Z,7.72
2023-04-10T05:50:18.293Z,7.78
2023-04-10T05:52:46.886Z,7.20
2023-04-10T05:55:13.729Z,7.82
2023-04-10T05:57:40.842Z,7.72
2023-04-10T06:00:09.496Z,7.95
2023-04-10T06:02:41.866Z,7.47
2023-04-10T06:05:09.200Z,7.82
2023-04-10T06:07:36.264Z,7.70
2023-04-10T06:10:03.244Z,7.13
2023-04-10T06:12:30.178Z,7.90
2023-04-10T06:14:56.840Z,6.70
2023-04-10T06:17:25.858Z,7.45
2023-04-10T06:19:52.755Z,7.20
2023-04-10T06:22:21.655Z,7.45
2023-04-10T06:24:51.819Z,7.70
2023-04-10T06:27:18.647Z,7.28
2023-04-10T06:30:03.877Z,7.82
2023-04-10T06:32:30.936Z,7.07
2023-04-10T06:34:57.875Z,7.30
2023-04-10T06:37:31.755Z,7.00
2023-04-10T06:40:07.315Z,7.22
2023-04-10T06:42:35.904Z,7.35
2023-04-10T06:45:06.487Z,7.50
2023-04-10T06:47:33.400Z,7.55
2023-04-10T06:50:04.961Z,6.18
2023-04-10T06:52:32.519Z,6.90
2023-04-10T06:55:01.800Z,6.78
2023-04-10T06:57:28.997Z,7.28
2023-04-10T06:59:57.048Z,7.15
2023-04-10T07:02:24.072Z,7.35
2023-04-10T07:04:53.937Z,6.85
2023-04-10T07:07:20.825Z,6.53
2023-04-10T07:09:47.949Z,6.68
2023-04-10T07:12:14.637Z,6.85
2023-04-10T07:14:44.437Z,6.85
2023-04-10T07:17:13.714Z,6.65
2023-04-10T07:19:42.805Z,6.43
2023-04-10T07:22:09.724Z,6.75
2023-04-10T07:24:38.847Z,6.30
2023-04-10T07:27:05.616Z,6.68
2023-04-10T07:29:32.378Z,6.38
2023-04-10T07:31:59.288Z,6.70
2023-04-10T07:34:26.332Z,6.95
2023-04-10T07:36:53.457Z,6.32
2023-04-10T07:39:20.280Z,6.50
2023-04-10T07:41:47.175Z,6.03
2023-04-10T07:44:14.633Z,6.93
2023-04-10T07:46:41.815Z,6.45
2023-04-10T07:49:08.983Z,6.60
2023-04-10T07:51:36.353Z,6.50
2023-04-10T07:54:04.528Z,6.55
2023-04-10T07:56:33.826Z,6.68
2023-04-10T07:59:03.864Z,6.68
2023-04-10T08:01:30.937Z,5.57
2023-04-10T08:03:58.070Z,6.07
2023-04-10T08:06:27.931Z,6.43
2023-04-10T08:08:55.218Z,6.15
2023-04-10T08:11:29.420Z,6.30
2023-04-10T08:14:02.068Z,6.20
2023-04-10T08:16:30.972Z,6.22
2023-04-10T08:18:58.762Z,6.25
2023-04-10T08:21:29.948Z,6.07
2023-04-10T08:23:58.487Z,5.75
2023-04-10T08:26:27.929Z,5.93
2023-04-10T08:28:58.652Z,5.65
2023-04-10T08:31:27.675Z,5.75
2023-04-10T08:34:14.454Z,5.85
2023-04-10T08:36:45.299Z,5.65
2023-04-10T08:39:14.691Z,7.03
2023-04-10T08:41:41.710Z,5.40
2023-04-10T08:44:10.236Z,5.80
2023-04-10T08:46:40.685Z,9.30
2023-04-10T08:49:20.073Z,7.22
2023-04-10T08:51:57.791Z,8.15
2023-04-10T08:54:36.591Z,7.28
2023-04-10T08:57:09.184Z,7.03
2023-04-10T08:59:40.248Z,8.15
2023-04-10T09:02:10.601Z,6.50
2023-04-10T09:04:38.001Z,6.30
2023-04-10T09:07:09.678Z,7.38
2023-04-10T09:09:36.894Z,6.32
2023-04-10T09:12:04.146Z,7.32
2023-04-10T09:14:35.280Z,6.28
2023-04-10T09:17:15.838Z,6.80
2023-04-10T09:19:47.279Z,6.85
2023-04-10T09:22:14.461Z,6.57
2023-04-10T09:24:44.473Z,6.13
2023-04-10T09:27:27.905Z,6.35
2023-04-10T09:29:55.528Z,6.70
2023-04-10T09:32:45.359Z,5.93
2023-04-10T09:35:16.854Z,7.20
2023-04-10T09:37:47.020Z,6.43
2023-04-10T09:40:25.521Z,6.65
2023-04-10T09:42:53.559Z,6.28
2023-04-10T09:45:22.547Z,6.20
2023-04-10T09:48:07.373Z,5.10
2023-04-10T09:50:40.407Z,5.97
2023-04-10T09:53:09.289Z,6.05
2023-04-10T09:55:38.091Z,5.93
2023-04-10T09:58:06.157Z,5.47
2023-04-10T10:00:40.010Z,6.00
2023-04-10T10:03:10.551Z,5.60
2023-04-10T10:05:43.097Z,7.05
2023-04-10T10:08:11.247Z,7.00
2023-04-10T10:10:46.064Z,6.70
2023-04-10T10:13:22.834Z,5.68
2023-04-10T10:15:54.962Z,6.00
2023-04-10T10:18:25.483Z,5.20
2023-04-10T10:20:55.846Z,5.68
2023-04-10T10:23:23.651Z,6.32
2023-04-10T10:25:51.334Z,5.50
2023-04-10T10:28:19.176Z,4.95
2023-04-10T10:30:49.849Z,4.95
2023-04-10T10:33:21.837Z,5.18
2023-04-10T10:35:50.206Z,5.53
2023-04-10T10:38:18.765Z,5.00
2023-04-10T10:40:51.905Z,5.25
2023-04-10T10:43:38.199Z,4.78
2023-04-10T10:46:09.580Z,4.68
2023-04-10T10:48:36.234Z,4.78
2023-04-10T10:51:04.063Z,4.60
2023-04-10T10:53:31.989Z,4.32
2023-04-10T10:55:58.601Z,3.97
2023-04-10T10:58:50.303Z,3.92
2023-04-10T11:01:20.309Z,4.20
2023-04-10T11:03:48.353Z,3.47
2023-04-10T11:06:19.890Z,3.50
2023-04-10T11:08:49.400Z,3.80
2023-04-10T11:11:24.580Z,3.65
2023-04-10T11:13:58.103Z,3.65
2023-04-10T11:16:47.278Z,3.40
2023-04-10T11:19:19.941Z,3.17
2023-04-10T11:22:04.775Z,3.05
2023-04-10T11:25:00.997Z,3.30
2023-04-10T11:27:54.709Z,3.15
2023-04-10T11:30:36.723Z,3.30
2023-04-10T11:33:05.898Z,3.10
2023-04-10T11:35:34.673Z,3.15
2023-04-10T11:38:11.240Z,3.20
2023-04-10T11:40:56.651Z,2.92
2023-04-10T11:43:24.598Z,2.78
2023-04-10T11:45:59.624Z,2.78
2023-04-10T11:48:28.991Z,3.17
2023-04-10T11:50:57.358Z,3.17
2023-04-10T11:53:30.610Z,2.72
2023-04-10T11:56:00.828Z,2.90
2023-04-10T11:58:30.965Z,2.95
2023-04-10T12:01:04.414Z,2.78
2023-04-10T12:03:47.149Z,2.70
2023-04-10T12:06:16.107Z,3.05
2023-04-10T12:08:50.038Z,2.55
2023-04-10T12:11:26.337Z,2.80
2023-04-10T12:13:58.662Z,2.67
2023-04-10T12:16:27.711Z,2.25
2023-04-10T12:18:56.287Z,2.65
2023-04-10T12:21:24.116Z,2.85
2023-04-10T12:23:54.303Z,2.55
2023-04-10T12:26:24.721Z,2.70
2023-04-10T12:28:55.525Z,2.83
2023-04-10T12:31:37.666Z,2.78
2023-04-10T12:34:05.584Z,2.60
2023-04-10T12:36:34.892Z,2.80
2023-04-10T12:39:03.633Z,2.65
2023-04-10T12:41:34.241Z,2.63
2023-04-10T12:44:14.075Z,2.45
2023-04-10T12:46:45.956Z,2.50
2023-04-10T12:49:17.207Z,2.90
2023-04-10T12:51:49.887Z,2.60
2023-04-10T12:54:34.227Z,2.55
2023-04-10T12:57:02.394Z,2.30
2023-04-10T12:59:30.322Z,2.55
2023-04-10T13:01:57.142Z,2.28
2023-04-10T13:04:24.060Z,2.58
2023-04-10T13:06:56.475Z,2.90
2023-04-10T13:09:23.151Z,1.92
2023-04-10T13:11:52.114Z,1.95
2023-04-10T13:14:18.796Z,2.10
2023-04-10T13:16:47.597Z,2.10
2023-04-10T13:19:16.567Z,2.22
2023-04-10T13:21:43.125Z,2.05
2023-04-10T13:24:12.604Z,2.60
2023-04-10T13:26:42.610Z,1.95
2023-04-10T13:29:09.181Z,2.15
2023-04-10T13:31:35.867Z,2.30
2023-04-10T13:34:05.783Z,2.22
2023-04-10T13:36:32.489Z,2.22
2023-04-10T13:38:59.130Z,2.28
2023-04-10T13:41:25.757Z,2.20
2023-04-10T13:43:55.980Z,2.55
2023-04-10T13:46:22.915Z,2.50
2023-04-10T13:48:49.502Z,2.35
2023-04-10T13:51:16.051Z,2.08
2023-04-10T13:53:42.644Z,2.25
2023-04-10T13:56:12.039Z,2.03
2023-04-10T13:58:45.498Z,2.17
2023-04-10T14:01:14.603Z,2.10
2023-04-10T14:03:43.686Z,2.20
2023-04-10T14:06:10.350Z,2.10
2023-04-10T14:08:39.075Z,2.13
2023-04-10T14:11:06.021Z,2.20
2023-04-10T14:13:32.885Z,2.10
2023-04-10T14:16:01.737Z,2.47
2023-04-10T14:18:28.412Z,2.20
2023-04-10T14:20:55.096Z,2.10
2023-04-10T14:23:23.055Z,2.05
2023-04-10T14:25:52.207Z,2.67
2023-04-10T14:28:21.358Z,2.13
2023-04-10T14:30:50.675Z,2.00
2023-04-10T14:33:24.370Z,2.10
2023-04-10T14:35:53.094Z,2.28
2023-04-10T14:38:19.706Z,2.17
2023-04-10T14:40:52.132Z,2.20
2023-04-10T14:43:20.945Z,2.25
2023-04-10T14:45:52.071Z,2.05
2023-04-10T14:48:19.965Z,2.42
2023-04-10T14:50:49.722Z,2.60
2023-04-10T14:53:16.817Z,2.47
2023-04-10T14:55:48.772Z,2.60
2023-04-10T14:58:15.607Z,2.40
2023-04-10T15:00:43.727Z,2.22
2023-04-10T15:03:13.438Z,2.13
2023-04-10T15:05:42.542Z,2.30
2023-04-10T15:08:09.235Z,2.30
2023-04-10T15:10:38.371Z,1.80
2023-04-10T15:13:06.093Z,2.10
2023-04-10T15:15:32.681Z,2.20
2023-04-10T15:17:59.342Z,2.25
2023-04-10T15:20:26.037Z,1.98
2023-04-10T15:22:52.947Z,2.50
2023-04-10T15:25:19.863Z,2.40
2023-04-10T15:27:46.548Z,2.33
2023-04-10T15:30:13.234Z,2.33
2023-04-10T15:32:39.841Z,2.97
2023-04-10T15:35:09.152Z,2.08
2023-04-10T15:37:36.731Z,2.40
2023-04-10T15:40:04.723Z,2.25
2023-04-10T15:42:31.313Z,2.40
2023-04-10T15:44:57.988Z,2.50
2023-04-10T15:47:24.785Z,2.33
2023-04-10T15:49:51.413Z,2.00
2023-04-10T15:52:18.116Z,1.90
2023-04-10T15:54:44.699Z,1.90
2023-04-10T15:57:11.203Z,2.05
2023-04-10T15:59:37.814Z,2.20
2023-04-10T16:02:06.924Z,2.03
2023-04-10T16:04:35.175Z,2.05
2023-04-10T16:07:01.970Z,2.35
2023-04-10T16:09:31.171Z,2.47
2023-04-10T16:11:58.098Z,2.50
2023-04-10T16:14:24.859Z,2.40
2023-04-10T16:16:51.425Z,2.20
2023-04-10T16:19:30.544Z,2.65
2023-04-10T16:21:57.380Z,2.35
2023-04-10T16:24:24.046Z,2.30
2023-04-10T16:26:50.744Z,2.88
2023-04-10T16:29:19.838Z,2.30
2023-04-10T16:31:46.540Z,2.95
2023-04-10T16:34:13.263Z,2.47
2023-04-10T16:36:42.133Z,2.83
2023-04-10T16:39:08.880Z,2.80
2023-04-10T16:41:35.506Z,2.90
2023-04-10T16:44:04.557Z,2.80
2023-04-10T16:46:33.167Z,2.88
2023-04-10T16:49:02.928Z,3.60
2023-04-10T16:51:31.935Z,3.55
2023-04-10T16:54:00.754Z,3.13
2023-04-10T16:56:27.375Z,3.42
2023-04-10T16:58:54.244Z,3.10
2023-04-10T17:01:26.466Z,3.08
2023-04-10T17:03:54.558Z,3.03
2023-04-10T17:06:21.307Z,2.85
2023-04-10T17:08:48.200Z,2.95
2023-04-10T17:11:14.923Z,3.08
2023-04-10T17:13:42.164Z,3.35
2023-04-10T17:16:09.561Z,3.08
2023-04-10T17:18:36.277Z,3.45
2023-04-10T17:21:05.523Z,3.38
2023-04-10T17:23:32.305Z,3.42
2023-04-10T17:25:59.048Z,3.28
2023-04-10T17:28:26.109Z,3.08
2023-04-10T17:30:52.742Z,3.40
2023-04-10T17:33:21.866Z,3.08
2023-04-10T17:35:51.195Z,3.33
2023-04-10T17:38:18.244Z,3.58
2023-04-10T17:40:44.856Z,4.00
2023-04-10T17:43:11.450Z,4.38
2023-04-10T17:45:41.488Z,3.58
2023-04-10T17:48:08.824Z,3.70
2023-04-10T17:50:35.782Z,3.70
2023-04-10T17:53:02.483Z,3.90
2023-04-10T17:55:29.189Z,3.58
2023-04-10T17:58:00.396Z,3.78
2023-04-10T18:00:27.030Z,4.25
2023-04-10T18:03:00.868Z,3.90
2023-04-10T18:05:32.158Z,4.00
2023-04-10T18:08:00.968Z,3.85
2023-04-10T18:10:27.570Z,3.78
2023-04-10T18:12:58.581Z,3.53
2023-04-10T18:15:25.965Z,3.38
2023-04-10T18:17:52.616Z,3.38
2023-04-10T18:20:20.867Z,3.55
2023-04-10T18:22:50.488Z,3.40
2023-04-10T18:25:20.099Z,3.38
2023-04-10T18:28:09.577Z,3.33
2023-04-10T18:30:39.106Z,3.88
2023-04-10T18:33:09.977Z,3.75
2023-04-10T18:35:37.902Z,3.25
2023-04-10T18:38:09.236Z,3.30
2023-04-10T18:40:36.905Z,3.08
2023-04-10T18:43:06.089Z,3.50
2023-04-10T18:45:37.453Z,3.05
2023-04-10T18:48:04.226Z,3.10
2023-04-10T18:50:36.912Z,4.22
2023-04-10T18:53:05.723Z,2.92
2023-04-10T18:55:34.724Z,3.42
2023-04-10T18:58:01.520Z,3.08
2023-04-10T19:00:28.217Z,2.80
2023-04-10T19:02:55.670Z,2.70
2023-04-10T19:05:22.552Z,2.65
2023-04-10T19:08:00.548Z,2.58
2023-04-10T19:10:32.279Z,2.38
2023-04-10T19:13:01.309Z,2.75
2023-04-10T19:15:30.122Z,2.83
2023-04-10T19:17:56.970Z,2.75
2023-04-10T19:20:48.933Z,3.20
2023-04-10T19:23:11.216Z,2.45
2023-04-10T19:25:38.031Z,2.47
2023-04-10T19:28:04.674Z,2.05
2023-04-10T19:30:31.301Z,2.08
2023-04-10T19:33:00.542Z,2.13
2023-04-10T19:35:27.274Z,1.95
2023-04-10T19:37:57.805Z,2.55
2023-04-10T19:40:26.779Z,1.75
2023-04-10T19:42:53.566Z,1.73
2023-04-10T19:45:27.266Z,2.00
2023-04-10T19:47:56.282Z,1.73
2023-04-10T19:50:23.067Z,1.60
2023-04-10T19:52:49.865Z,1.70
2023-04-10T19:55:18.757Z,2.08
2023-04-10T19:57:46.044Z,1.80
2023-04-10T20:00:13.165Z,1.50
2023-04-10T20:02:40.349Z,1.67
2023-04-10T20:05:07.602Z,1.95
2023-04-10T20:07:34.208Z,1.70
2023-04-10T20:10:03.511Z,1.73
2023-04-10T20:12:33.182Z,1.63
2023-04-10T20:15:00.736Z,1.80
2023-04-10T20:17:28.008Z,1.92
2023-04-10T20:19:57.757Z,2.00
2023-04-10T20:22:24.578Z,1.90
2023-04-10T20:24:53.659Z,2.10
2023-04-10T20:27:20.598Z,1.85
2023-04-10T20:29:49.866Z,2.38
2023-04-10T20:32:19.184Z,2.00
2023-04-10T20:34:48.406Z,1.85
2023-04-10T20:37:18.783Z,1.88
2023-04-10T20:39:48.597Z,2.28
2023-04-10T20:42:17.081Z,2.17
2023-04-10T20:44:44.022Z,2.17
2023-04-10T20:47:11.043Z,2.00
2023-04-10T20:49:38.357Z,2.08
2023-04-10T20:52:06.234Z,1.75
2023-04-10T20:54:33.649Z,2.08
2023-04-10T20:57:06.222Z,2.15
2023-04-10T20:59:33.369Z,2.17
2023-04-10T21:02:00.256Z,2.40
2023-04-10T21:04:27.049Z,2.50
2023-04-10T21:06:53.795Z,2.15
2023-04-10T21:09:20.962Z,2.45
2023-04-10T21:11:47.634Z,2.50
2023-04-10T21:14:14.473Z,2.25
2023-04-10T21:16:42.786Z,2.13
2023-04-10T21:19:09.699Z,2.33
2023-04-10T21:21:36.430Z,2.25
2023-04-10T21:24:03.516Z,2.63
2023-04-10T21:26:30.284Z,2.13
2023-04-10T21:29:01.923Z,2.80
2023-04-10T21:31:28.776Z,2.55
2023-04-10T21:33:55.616Z,2.17
2023-04-10T21:36:22.389Z,2.67
2023-04-10T21:38:49.097Z,2.75
2023-04-10T21:41:15.869Z,2.70
2023-04-10T21:43:44.913Z,2.45
2023-04-10T21:46:12.034Z,2.85
2023-04-10T21:48:39.209Z,2.90
2023-04-10T21:51:08.683Z,2.80
2023-04-10T21:53:35.344Z,3.00
2023-04-10T21:56:08.168Z,3.15
2023-04-10T21:58:39.863Z,3.05
2023-04-10T22:01:08.375Z,2.85
2023-04-10T22:03:38.538Z,3.05
2023-04-10T22:06:05.450Z,3.78
2023-04-10T22:08:34.729Z,3.70
2023-04-10T22:11:01.578Z,2.78
2023-04-10T22:13:31.128Z,2.70
2023-04-10T22:15:58.848Z,3.58
2023-04-10T22:18:25.874Z,3.60
2023-04-10T22:20:52.878Z,3.65
2023-04-10T22:23:19.642Z,3.47
2023-04-10T22:25:48.739Z,3.45
2023-04-10T22:28:15.916Z,3.08
2023-04-10T22:30:42.622Z,3.22
2023-04-10T22:33:14.315Z,3.83
2023-04-10T22:35:41.083Z,3.22
2023-04-10T22:38:07.920Z,3.58
2023-04-10T22:40:34.720Z,3.60
2023-04-10T22:43:01.709Z,3.20
2023-04-10T22:45:28.640Z,3.38
2023-04-10T22:47:55.847Z,3.90
2023-04-10T22:50:22.685Z,3.60
2023-04-10T22:52:49.575Z,3.50
2023-04-10T22:55:16.532Z,3.42
2023-04-10T22:57:47.653Z,3.67
2023-04-10T23:00:15.020Z,3.90
2023-04-10T23:02:41.986Z,3.55
2023-04-10T23:05:09.341Z,3.47
2023-04-10T23:07:36.071Z,3.05
2023-04-10T23:10:02.963Z,3.67
2023-04-10T23:12:32.151Z,3.30
2023-04-10T23:15:01.308Z,3.65
2023-04-10T23:17:28.210Z,3.47
2023-04-10T23:19:57.339Z,4.15
2023-04-10T23:22:24.126Z,3.05
2023-04-10T23:24:54.851Z,3.40
2023-04-10T23:27:21.765Z,3.60
2023-04-10T23:29:51.844Z,3.85
2023-04-10T23:32:18.514Z,3.90
2023-04-10T23:34:46.387Z,3.55
2023-04-10T23:37:13.169Z,3.45
2023-04-10T23:39:39.997Z,4.20
2023-04-10T23:42:06.871Z,4.65
2023-04-10T23:44:33.542Z,4.22
2023-04-10T23:47:00.328Z,3.72
2023-04-10T23:49:27.197Z,3.85
2023-04-10T23:51:54.015Z,4.50
2023-04-10T23:54:23.038Z,5.03
2023-04-10T23:56:49.813Z,4.50
2023-04-10T23:59:17.264Z,4.97
